KCSV/CSV METAR and TAF weather

Enter ICAO airport designator
Station Type Date Time Source
KCSV METAR 2020/09/20 05:53 UTC NOAA

KCSV 200553Z AUTO 00000KT 9SM CLR 12/11 A3026 RMK AO2 SLP239 T01170106 10167 20117 402110100 50003


Station Type Date Time Source
KCSV Decoded METAR 2020/09/20 05:53 UTC NOAA

CROSSVILLE MEMORIAL AIRPORT , TN, United States (KCSV) 35-57N 85-05W 570M
Sep 20, 2020 - 01:53 AM EDT / 2020.09.20 0553 UTC
Wind: Calm:0
Visibility: 9 mile(s):0
Sky conditions: clear
Temperature: 53.1 F (11.7 C)
Dew Point: 51.1 F (10.6 C)
Relative Humidity: 92%
Pressure (altimeter): 30.26 in. Hg (1024 hPa)
Pressure tendency: 0.01 inches (0.3 hPa) higher than three hours ago
ob: KCSV 200553Z AUTO 00000KT 9SM CLR 12/11 A3026 RMK AO2 SLP239 T01170106 10167 20117 402110100 50003
cycle: 6

Station Type Date Time Source
KCSV TAF 2020/09/20 06:22 UTC NOAA

TAF KCSV 200520Z 2006/2106 VRB03KT P6SM FEW040
FM200900 00000KT 4SM BR FEW025
TEMPO 2010/2014 2SM BR SCT012
FM201400 07005KT P6SM FEW035 SCT250

Example: see airport list